Time;durP1;ratioP1;P1;durP2;ratioP2;P2;SDS_P1;SDS_P2;PMS_P1;PMS_P2;Temp;Humidity;BMP_temperature;BMP_pressure;BME280_temperature;BME280_humidity;BME280_pressure;Samples;Min_cycle;Max_cycle;Signal;HPM_P1;HPM_P2
2023/06/20 00:01:26;;;;;;;12.90;10.40;;;20.30;1.00;;;;;;5048226;28;20045;-81
2023/06/20 00:03:52;;;;;;;13.18;9.80;;;20.30;1.00;;;;;;5046820;28;20057;-81
2023/06/20 00:06:21;;;;;;;13.00;10.77;;;20.30;1.00;;;;;;5046834;28;20400;-81
2023/06/20 00:08:48;;;;;;;13.05;10.63;;;20.40;1.00;;;;;;5048073;28;20032;-78
2023/06/20 00:11:15;;;;;;;14.00;10.52;;;20.30;1.00;;;;;;5048091;28;20025;-80
2023/06/20 00:13:42;;;;;;;17.77;12.30;;;20.20;1.00;;;;;;5048279;28;20387;-80
2023/06/20 00:16:09;;;;;;;12.57;10.77;;;20.30;1.00;;;;;;5045197;28;20043;-81
2023/06/20 00:18:36;;;;;;;16.98;10.63;;;20.30;1.00;;;;;;5048058;28;20037;-80
2023/06/20 00:21:02;;;;;;;18.10;14.07;;;20.30;1.00;;;;;;5048073;28;20037;-79
2023/06/20 00:23:29;;;;;;;21.75;14.55;;;20.40;1.00;;;;;;5050183;28;20451;-73
2023/06/20 00:25:56;;;;;;;19.08;14.40;;;20.40;9.10;;;;;;5049111;28;20041;-76
2023/06/20 00:28:22;;;;;;;21.75;15.48;;;20.40;67.90;;;;;;5048415;28;20052;-74
2023/06/20 00:30:49;;;;;;;26.73;16.45;;;20.30;99.90;;;;;;5046008;28;20032;-75
2023/06/20 00:33:19;;;;;;;26.25;19.08;;;20.30;99.90;;;;;;5045203;28;20029;-75
2023/06/20 00:35:45;;;;;;;23.63;18.13;;;20.10;99.90;;;;;;5046462;28;20097;-74
2023/06/20 00:38:11;;;;;;;30.65;20.13;;;20.10;99.90;;;;;;5046593;28;20056;-75
2023/06/20 00:40:38;;;;;;;25.52;20.95;;;20.20;1.00;;;;;;5045090;28;20041;-75
2023/06/20 00:43:04;;;;;;;22.65;18.20;;;20.10;1.00;;;;;;5049728;28;20031;-77
2023/06/20 00:45:32;;;;;;;28.80;19.83;;;19.90;1.00;;;;;;5043983;28;20028;-76
2023/06/20 00:48:01;;;;;;;21.67;18.58;;;19.70;1.00;;;;;;5031465;28;20049;-77
2023/06/20 00:50:31;;;;;;;27.95;19.27;;;19.70;1.00;;;;;;5046051;28;20423;-74
2023/06/20 00:53:00;;;;;;;25.33;18.60;;;19.60;3.70;;;;;;5049560;28;20029;-76
2023/06/20 00:55:28;;;;;;;26.58;19.90;;;19.50;27.90;;;;;;5045484;28;20463;-76
2023/06/20 00:57:59;;;;;;;28.23;19.90;;;19.40;55.20;;;;;;5048529;28;20049;-74
2023/06/20 01:00:26;;;;;;;25.52;19.33;;;19.40;99.90;;;;;;5048859;28;20032;-75
2023/06/20 01:02:56;;;;;;;30.08;21.83;;;19.40;99.90;;;;;;5049158;28;20044;-76
2023/06/20 01:05:27;;;;;;;31.38;22.63;;;19.40;99.90;;;;;;5031306;28;20047;-74
2023/06/20 01:08:00;;;;;;;32.05;22.67;;;19.40;99.90;;;;;;5043440;28;20502;-74
2023/06/20 01:10:47;;;;;;;30.77;23.30;;;19.30;99.90;;;;;;5050503;28;20036;-73
2023/06/20 01:13:31;;;;;;;30.30;22.63;;;19.30;99.90;;;;;;5045453;28;20033;-76
2023/06/20 01:16:16;;;;;;;29.08;22.58;;;19.30;99.90;;;;;;5059658;28;20052;-78
2023/06/20 01:18:58;;;;;;;30.75;23.45;;;19.30;99.90;;;;;;5025671;28;20407;-74
2023/06/20 01:21:37;;;;;;;30.23;24.52;;;19.30;99.90;;;;;;5044424;28;20035;-74
2023/06/20 01:24:22;;;;;;;33.67;23.33;;;19.30;99.90;;;;;;5060252;28;20050;-74
2023/06/20 01:27:04;;;;;;;33.63;24.48;;;19.30;99.90;;;;;;5060990;28;20052;-74
2023/06/20 01:29:47;;;;;;;37.50;26.33;;;19.30;99.90;;;;;;5064115;28;20052;-74
2023/06/20 01:32:17;;;;;;;31.48;24.20;;;19.30;99.90;;;;;;5028938;28;20037;-76
2023/06/20 01:34:54;;;;;;;32.27;23.80;;;19.40;99.90;;;;;;5047589;28;20037;-75
2023/06/20 01:37:22;;;;;;;35.28;25.38;;;19.30;99.90;;;;;;5047038;28;20248;-74
2023/06/20 01:39:56;;;;;;;36.60;24.63;;;19.30;99.90;;;;;;5059819;28;20064;-74
2023/06/20 01:42:25;;;;;;;30.27;23.92;;;19.40;99.90;;;;;;5048862;28;20044;-74
2023/06/20 01:44:53;;;;;;;32.90;25.00;;;19.30;99.90;;;;;;5042397;28;20025;-74
2023/06/20 01:47:22;;;;;;;30.70;23.88;;;19.30;99.90;;;;;;5047691;28;20028;-75
2023/06/20 01:49:51;;;;;;;35.08;25.25;;;19.30;99.90;;;;;;5047369;28;20049;-74
2023/06/20 01:52:19;;;;;;;30.38;24.23;;;19.30;99.90;;;;;;5047469;28;20037;-74
2023/06/20 01:54:49;;;;;;;31.40;23.10;;;19.30;99.90;;;;;;5046285;28;20021;-75
2023/06/20 01:57:17;;;;;;;33.53;25.50;;;19.30;99.90;;;;;;5044807;28;20057;-75
2023/06/20 01:59:45;;;;;;;32.75;24.20;;;19.30;99.90;;;;;;5048079;28;20040;-74
2023/06/20 02:02:12;;;;;;;32.03;23.42;;;19.30;99.90;;;;;;5062752;28;20500;-73
2023/06/20 02:04:40;;;;;;;34.38;22.40;;;19.30;99.90;;;;;;5029733;28;20045;-75
2023/06/20 02:07:09;;;;;;;32.67;23.80;;;19.30;99.90;;;;;;5047307;28;20055;-73
2023/06/20 02:09:36;;;;;;;29.00;22.40;;;19.30;99.90;;;;;;5028318;28;20037;-74
2023/06/20 02:12:09;;;;;;;;;;;19.30;99.90;;;;;;5044952;28;20044;-75
2023/06/20 02:14:36;;;;;;;31.00;21.80;;;19.40;99.90;;;;;;5045603;28;20359;-74
2023/06/20 02:17:04;;;;;;;28.65;20.92;;;19.30;99.90;;;;;;5042064;28;20037;-77
2023/06/20 02:19:31;;;;;;;28.75;21.35;;;19.40;99.90;;;;;;5047342;28;20044;-76
2023/06/20 02:21:59;;;;;;;31.98;22.77;;;19.40;99.90;;;;;;5045142;28;20467;-76
2023/06/20 02:24:30;;;;;;;30.55;22.17;;;19.50;99.90;;;;;;5042856;28;20396;-74
2023/06/20 02:26:58;;;;;;;32.50;22.65;;;19.50;99.90;;;;;;5047564;28;20033;-75
2023/06/20 02:29:27;;;;;;;30.80;21.55;;;19.50;99.90;;;;;;5029015;28;20052;-74
2023/06/20 02:31:57;;;;;;;;;;;19.40;99.90;;;;;;5046645;28;20044;-74
2023/06/20 02:34:25;;;;;;;28.65;20.80;;;19.40;99.90;;;;;;5045455;28;19912;-73
2023/06/20 02:36:55;;;;;;;29.83;20.98;;;19.40;99.90;;;;;;5046965;28;20033;-75
2023/06/20 02:39:24;;;;;;;32.35;23.23;;;19.40;99.90;;;;;;5046092;28;20049;-75
2023/06/20 02:41:50;;;;;;;33.05;24.13;;;19.30;99.90;;;;;;5043893;28;20033;-74
2023/06/20 02:44:16;;;;;;;36.60;25.13;;;19.30;99.90;;;;;;5042639;28;20050;-75
2023/06/20 02:46:59;;;;;;;31.38;22.55;;;19.30;99.90;;;;;;5047701;28;20044;-74
2023/06/20 02:49:35;;;;;;;35.28;22.08;;;19.30;99.90;;;;;;5029207;28;20364;-76
2023/06/20 02:52:20;;;;;;;32.60;20.30;;;19.30;99.90;;;;;;5046934;28;20048;-77
2023/06/20 02:55:17;;;;;;;31.48;19.15;;;19.20;99.90;;;;;;5029317;28;20041;-75
2023/06/20 02:57:50;;;;;;;27.13;17.40;;;19.10;99.90;;;;;;5035114;28;20057;-75
2023/06/20 03:00:18;;;;;;;26.23;15.93;;;19.10;99.90;;;;;;5028194;28;20048;-76
2023/06/20 03:02:51;;;;;;;25.42;16.20;;;19.10;99.90;;;;;;5029750;28;20048;-76
2023/06/20 03:05:18;;;;;;;28.92;16.27;;;19.10;99.90;;;;;;5060337;28;20483;-74
2023/06/20 03:07:46;;;;;;;30.27;19.50;;;19.10;99.90;;;;;;5026900;28;20045;-75
2023/06/20 03:10:12;;;;;;;33.85;23.05;;;19.00;99.90;;;;;;5049530;28;20486;-75
2023/06/20 03:12:39;;;;;;;36.95;23.65;;;19.10;99.90;;;;;;5049444;28;20041;-75
2023/06/20 03:15:06;;;;;;;39.20;23.98;;;19.10;99.90;;;;;;5048051;28;20353;-75
2023/06/20 03:17:35;;;;;;;45.75;24.02;;;19.20;99.90;;;;;;5028035;28;20423;-76
2023/06/20 03:20:10;;;;;;;29.65;21.23;;;19.20;99.90;;;;;;5032770;28;20401;-79
2023/06/20 03:22:38;;;;;;;27.60;19.63;;;19.20;99.90;;;;;;5067334;28;20081;-73
2023/06/20 03:25:04;;;;;;;29.27;20.52;;;19.20;99.90;;;;;;5049226;28;20045;-74
2023/06/20 03:27:31;;;;;;;34.13;20.67;;;19.10;99.90;;;;;;5050981;28;20116;-76
2023/06/20 03:30:03;;;;;;;31.15;21.80;;;19.10;99.90;;;;;;5035508;28;20048;-75
2023/06/20 03:32:31;;;;;;;29.23;21.77;;;19.20;99.90;;;;;;5050661;28;20056;-75
2023/06/20 03:34:58;;;;;;;33.92;21.52;;;19.20;99.90;;;;;;5047958;28;20044;-75
2023/06/20 03:37:24;;;;;;;32.38;23.60;;;19.20;99.90;;;;;;5061355;28;20049;-77
2023/06/20 03:39:50;;;;;;;41.47;23.70;;;19.20;99.90;;;;;;5031312;28;20045;-74
2023/06/20 03:42:16;;;;;;;39.88;23.90;;;19.20;99.90;;;;;;5062882;28;20048;-75
2023/06/20 03:44:43;;;;;;;41.65;23.55;;;19.20;99.90;;;;;;5064046;28;20044;-76
2023/06/20 03:47:10;;;;;;;43.85;25.73;;;19.20;99.90;;;;;;5044371;28;20041;-76
2023/06/20 03:49:37;;;;;;;44.33;26.05;;;19.20;99.90;;;;;;5048287;28;20050;-74
2023/06/20 03:52:04;;;;;;;39.78;26.40;;;19.10;99.90;;;;;;5039334;28;20404;-77
2023/06/20 03:54:30;;;;;;;51.30;27.55;;;19.10;99.90;;;;;;5031111;28;20064;-75
2023/06/20 03:56:58;;;;;;;41.67;25.90;;;19.00;99.90;;;;;;5064372;28;20052;-74
2023/06/20 03:59:24;;;;;;;47.70;27.10;;;19.00;99.90;;;;;;5058490;28;20041;-76
2023/06/20 04:01:51;;;;;;;46.95;26.17;;;19.10;99.90;;;;;;5048677;28;20052;-76
2023/06/20 04:04:21;;;;;;;49.70;27.85;;;19.10;99.90;;;;;;5048768;28;20049;-74
2023/06/20 04:06:50;;;;;;;43.95;28.58;;;19.20;99.90;;;;;;5048497;28;20037;-74
2023/06/20 04:09:17;;;;;;;52.38;29.00;;;19.20;99.90;;;;;;5047297;28;20037;-75
2023/06/20 04:11:45;;;;;;;51.97;29.55;;;19.30;99.90;;;;;;5046767;28;20056;-74
2023/06/20 04:14:13;;;;;;;46.92;28.88;;;19.40;99.90;;;;;;5047143;28;20078;-76
2023/06/20 04:16:40;;;;;;;52.97;28.63;;;19.50;99.90;;;;;;5049538;28;20028;-74
2023/06/20 04:19:08;;;;;;;33.13;24.98;;;19.70;99.90;;;;;;5030040;28;20045;-75
2023/06/20 04:21:34;;;;;;;26.25;21.20;;;20.30;99.90;;;;;;5033801;28;20040;-74
2023/06/20 04:24:00;;;;;;;20.73;17.98;;;20.60;99.90;;;;;;5047655;28;20365;-75
2023/06/20 04:26:26;;;;;;;17.60;15.60;;;20.90;99.90;;;;;;5064241;28;20490;-74
2023/06/20 04:28:53;;;;;;;16.23;12.80;;;20.90;99.90;;;;;;5048134;28;20459;-75
2023/06/20 04:31:20;;;;;;;13.43;11.70;;;20.70;99.90;;;;;;5059494;28;20048;-75
2023/06/20 04:33:47;;;;;;;12.52;10.88;;;20.80;99.90;;;;;;5048944;28;20033;-77
2023/06/20 04:36:13;;;;;;;12.57;10.70;;;20.80;99.90;;;;;;5045641;28;20471;-75
2023/06/20 04:38:42;;;;;;;13.10;10.82;;;21.00;99.90;;;;;;5060997;28;20045;-75
2023/06/20 04:41:09;;;;;;;12.00;10.63;;;21.10;99.90;;;;;;5063654;28;20048;-75
2023/06/20 04:43:36;;;;;;;12.43;11.13;;;21.30;99.90;;;;;;5045713;28;20037;-75
2023/06/20 04:46:02;;;;;;;12.60;11.40;;;21.30;99.90;;;;;;5060517;28;20329;-75
2023/06/20 04:48:30;;;;;;;12.65;11.40;;;21.00;99.90;;;;;;5044955;28;20053;-74
2023/06/20 04:50:56;;;;;;;19.05;11.52;;;21.20;99.90;;;;;;5063596;28;20045;-75
2023/06/20 04:53:25;;;;;;;11.65;10.20;;;21.20;99.80;;;;;;5046179;28;20398;-76
2023/06/20 04:55:51;;;;;;;17.20;12.18;;;21.20;92.30;;;;;;5048421;28;20040;-75
2023/06/20 04:58:18;;;;;;;13.18;11.82;;;21.50;35.70;;;;;;5045332;28;20519;-73
2023/06/20 05:00:44;;;;;;;11.88;10.07;;;22.00;56.40;;;;;;5048995;28;20033;-75
2023/06/20 05:03:11;;;;;;;12.18;10.88;;;22.00;1.00;;;;;;5047134;28;20040;-74
2023/06/20 05:05:40;;;;;;;11.40;10.23;;;22.10;1.00;;;;;;5048708;28;20028;-74
2023/06/20 05:08:06;;;;;;;11.10;9.90;;;22.00;99.90;;;;;;5062141;28;20044;-76
2023/06/20 05:10:32;;;;;;;12.20;9.65;;;22.20;99.90;;;;;;5046026;28;20040;-75
2023/06/20 05:12:59;;;;;;;14.13;10.43;;;23.00;99.90;;;;;;5047502;28;20384;-76
2023/06/20 05:15:25;;;;;;;11.38;10.15;;;23.30;99.90;;;;;;5044990;28;20483;-77
2023/06/20 05:17:52;;;;;;;10.05;8.98;;;24.00;99.90;;;;;;5047286;28;20400;-74
2023/06/20 05:20:19;;;;;;;10.00;8.95;;;24.40;99.90;;;;;;5045776;28;20033;-76
2023/06/20 05:22:45;;;;;;;13.60;9.82;;;23.90;1.00;;;;;;5049035;28;20029;-76
2023/06/20 05:25:12;;;;;;;9.35;7.63;;;24.00;18.80;;;;;;5043104;28;20460;-76
2023/06/20 05:27:38;;;;;;;9.90;8.77;;;24.60;99.90;;;;;;5064714;28;20043;-75
2023/06/20 05:30:05;;;;;;;9.95;7.90;;;25.10;99.90;;;;;;5047814;28;20039;-74
2023/06/20 05:32:31;;;;;;;12.63;7.72;;;24.90;43.90;;;;;;5046750;28;20163;-75
2023/06/20 05:34:57;;;;;;;7.90;7.15;;;26.00;1.00;;;;;;5042793;28;20040;-75
2023/06/20 05:37:23;;;;;;;8.23;7.43;;;26.00;1.00;;;;;;5030732;28;20033;-76
2023/06/20 05:39:49;;;;;;;11.57;7.25;;;26.10;40.90;;;;;;5047340;28;20391;-77
2023/06/20 05:42:17;;;;;;;11.98;8.52;;;26.30;1.00;;;;;;5047489;28;20029;-78
2023/06/20 05:44:43;;;;;;;9.63;7.80;;;26.50;1.00;;;;;;5043596;28;20032;-78
2023/06/20 05:47:17;;;;;;;8.68;7.72;;;27.00;1.00;;;;;;5046890;28;20033;-78
2023/06/20 05:49:47;;;;;;;24.10;22.05;;;27.10;1.00;;;;;;5047800;28;20056;-75
2023/06/20 05:52:14;;;;;;;7.55;6.75;;;27.20;99.90;;;;;;5045817;28;20029;-75
2023/06/20 05:54:43;;;;;;;34.83;32.20;;;27.30;99.90;;;;;;5047851;28;20040;-75
2023/06/20 05:57:09;;;;;;;7.80;6.80;;;27.20;99.90;;;;;;5048104;28;20033;-78
2023/06/20 05:59:35;;;;;;;7.50;6.80;;;27.20;99.90;;;;;;5048512;28;20049;-76
2023/06/20 06:02:05;;;;;;;7.95;6.97;;;27.30;99.90;;;;;;5047042;28;20151;-77
2023/06/20 06:04:33;;;;;;;28.55;26.00;;;27.90;99.90;;;;;;5046080;28;20047;-77
2023/06/20 06:06:59;;;;;;;7.47;6.78;;;27.80;99.90;;;;;;5062130;28;20041;-77
2023/06/20 06:09:25;;;;;;;8.43;6.97;;;28.10;99.90;;;;;;5048247;28;20040;-79
2023/06/20 06:11:52;;;;;;;8.10;6.45;;;28.30;99.90;;;;;;5059212;28;20045;-78
2023/06/20 06:14:18;;;;;;;11.35;6.93;;;28.30;99.90;;;;;;5045103;28;20041;-79
2023/06/20 06:16:44;;;;;;;18.42;16.65;;;28.20;99.90;;;;;;5046328;28;20025;-78
2023/06/20 06:19:10;;;;;;;7.90;6.95;;;28.20;99.90;;;;;;5047221;28;20036;-81
2023/06/20 06:21:37;;;;;;;69.05;49.10;;;28.60;99.90;;;;;;5048864;28;20048;-78
2023/06/20 06:24:04;;;;;;;7.70;6.72;;;29.30;99.90;;;;;;5043441;28;20034;-79
2023/06/20 06:26:30;;;;;;;9.63;7.15;;;29.70;63.60;;;;;;5048116;28;20226;-78
2023/06/20 06:28:56;;;;;;;9.57;7.53;;;29.60;99.90;;;;;;5058523;28;20065;-79
2023/06/20 06:31:26;;;;;;;7.60;6.75;;;30.00;58.20;;;;;;5046028;28;20041;-80
2023/06/20 06:33:54;;;;;;;8.02;7.22;;;30.50;51.30;;;;;;5047188;28;20029;-79
2023/06/20 06:36:21;;;;;;;9.30;8.17;;;29.80;91.00;;;;;;5046724;28;20492;-84
2023/06/20 06:38:50;;;;;;;9.38;7.43;;;29.80;97.70;;;;;;5046999;28;20307;-82
2023/06/20 06:41:17;;;;;;;10.20;8.15;;;30.20;91.90;;;;;;5046792;28;20394;-82
2023/06/20 06:43:44;;;;;;;7.82;7.03;;;30.00;38.50;;;;;;5048541;28;20103;-82
2023/06/20 06:46:11;;;;;;;8.63;7.28;;;30.20;57.80;;;;;;5040855;28;20460;-87
2023/06/20 06:48:37;;;;;;;8.35;6.93;;;30.10;91.70;;;;;;5038029;28;20033;-88
2023/06/20 06:51:04;;;;;;;7.93;7.07;;;30.60;1.00;;;;;;5049177;28;20041;-83
2023/06/20 06:53:30;;;;;;;8.85;7.95;;;30.50;1.00;;;;;;5048103;28;20024;-83
2023/06/20 06:55:56;;;;;;;8.75;7.63;;;29.80;31.00;;;;;;5050738;28;20033;-81
2023/06/20 06:58:22;;;;;;;9.63;7.35;;;29.30;15.70;;;;;;5048741;28;20064;-83
2023/06/20 07:00:49;;;;;;;9.27;7.55;;;28.90;19.10;;;;;;5052326;28;20394;-82
2023/06/20 07:03:15;;;;;;;7.75;7.05;;;29.30;60.00;;;;;;5046762;28;20033;-88
2023/06/20 07:05:41;;;;;;;8.18;7.38;;;29.10;67.10;;;;;;5052596;28;20029;-83
2023/06/20 07:08:07;;;;;;;7.93;7.22;;;28.60;94.60;;;;;;5017636;28;20056;-83
2023/06/20 07:10:33;;;;;;;8.45;7.53;;;29.30;26.20;;;;;;5049104;28;20028;-81
2023/06/20 07:13:00;;;;;;;9.07;8.18;;;29.50;17.50;;;;;;5052263;28;20036;-83
2023/06/20 07:15:27;;;;;;;9.43;7.13;;;28.80;31.10;;;;;;5051952;28;20038;-84
2023/06/20 07:17:53;;;;;;;7.95;7.15;;;28.40;34.30;;;;;;5048451;28;20025;-82
2023/06/20 07:20:19;;;;;;;9.88;6.97;;;28.70;37.10;;;;;;5048139;28;20041;-83
2023/06/20 07:22:45;;;;;;;9.30;7.10;;;29.30;8.50;;;;;;5047419;28;20037;-84
2023/06/20 07:25:12;;;;;;;8.80;7.95;;;29.50;1.00;;;;;;5048227;28;20383;-92
2023/06/20 07:27:38;;;;;;;26.92;8.15;;;29.80;1.00;;;;;;5050787;28;20030;-81
2023/06/20 07:30:05;;;;;;;36.88;17.30;;;28.50;15.00;;;;;;5048683;28;20432;-81
2023/06/20 07:32:31;;;;;;;7.90;6.95;;;29.30;1.00;;;;;;5051761;28;20032;-84
2023/06/20 07:34:57;;;;;;;9.15;7.18;;;29.40;1.00;;;;;;5050005;28;20029;-83
2023/06/20 07:37:23;;;;;;;8.38;7.53;;;29.20;1.00;;;;;;5050792;28;20029;-83
2023/06/20 07:39:50;;;;;;;7.68;6.95;;;28.70;24.10;;;;;;5050323;28;20128;-82
2023/06/20 07:42:16;;;;;;;9.02;7.90;;;27.80;54.20;;;;;;5047960;28;20464;-83
2023/06/20 07:44:42;;;;;;;8.73;7.72;;;28.00;35.50;;;;;;5051320;28;20029;-81
2023/06/20 07:47:08;;;;;;;9.70;8.77;;;28.70;34.50;;;;;;5049831;28;20032;-83
2023/06/20 07:49:34;;;;;;;8.05;7.25;;;29.20;1.00;;;;;;5048680;28;20467;-83
2023/06/20 07:52:00;;;;;;;7.93;7.18;;;29.30;32.30;;;;;;5048961;28;20036;-82
2023/06/20 07:54:27;;;;;;;9.30;7.30;;;29.10;1.00;;;;;;5065152;28;20033;-84
2023/06/20 07:56:53;;;;;;;8.48;6.97;;;29.00;1.00;;;;;;5049743;28;20402;-85
2023/06/20 07:59:19;;;;;;;8.02;7.20;;;28.90;1.40;;;;;;5046039;28;20060;-83
2023/06/20 08:01:46;;;;;;;7.38;6.68;;;29.10;1.00;;;;;;5049294;28;20045;-84
2023/06/20 08:04:12;;;;;;;8.02;7.22;;;28.90;1.00;;;;;;5054320;28;20044;-82
2023/06/20 08:06:38;;;;;;;7.63;6.82;;;28.80;1.00;;;;;;5045845;28;20022;-82
2023/06/20 08:09:05;;;;;;;7.43;6.72;;;29.20;1.00;;;;;;5048353;28;20037;-82
2023/06/20 08:11:31;;;;;;;9.85;7.25;;;29.80;1.00;;;;;;5049752;28;20036;-81
2023/06/20 08:13:57;;;;;;;8.18;7.38;;;29.30;1.00;;;;;;5048464;28;20029;-82
2023/06/20 08:16:23;;;;;;;8.57;7.68;;;29.10;1.00;;;;;;5045386;28;20033;-82
2023/06/20 08:18:50;;;;;;;7.68;6.93;;;28.80;1.00;;;;;;5045082;28;20045;-79
2023/06/20 08:21:16;;;;;;;17.42;7.35;;;29.20;1.00;;;;;;5046703;28;20036;-83
2023/06/20 08:23:42;;;;;;;7.53;6.75;;;29.30;1.00;;;;;;5051087;28;20036;-83
2023/06/20 08:26:08;;;;;;;8.60;7.03;;;29.80;1.00;;;;;;5047105;28;20100;-82
2023/06/20 08:28:34;;;;;;;8.50;7.70;;;30.40;1.00;;;;;;5048257;28;20498;-84
2023/06/20 08:31:02;;;;;;;8.10;7.25;;;29.90;1.00;;;;;;5046936;28;20044;-80
2023/06/20 08:33:28;;;;;;;8.43;7.05;;;29.30;1.00;;;;;;5048815;28;20385;-81
2023/06/20 08:35:54;;;;;;;8.35;7.55;;;29.50;1.00;;;;;;5062393;28;20041;-81
2023/06/20 08:38:20;;;;;;;8.02;6.65;;;30.60;1.00;;;;;;5048353;28;20498;-81
2023/06/20 08:40:46;;;;;;;8.25;6.57;;;31.20;1.00;;;;;;5045611;28;20471;-81
2023/06/20 08:43:16;;;;;;;7.93;7.22;;;31.50;1.00;;;;;;5041969;28;20040;-80
2023/06/20 08:45:43;;;;;;;8.07;7.13;;;31.40;1.00;;;;;;5049818;28;20037;-79
2023/06/20 08:48:10;;;;;;;10.30;7.18;;;31.50;1.00;;;;;;5050835;28;20036;-83
2023/06/20 08:50:37;;;;;;;10.48;7.70;;;31.60;1.00;;;;;;5031416;28;20040;-81
2023/06/20 08:53:06;;;;;;;7.47;6.80;;;31.70;1.00;;;;;;5047625;28;20403;-79
2023/06/20 08:55:34;;;;;;;9.32;7.40;;;32.10;1.00;;;;;;5051428;28;20037;-81
2023/06/20 08:58:00;;;;;;;9.18;8.32;;;31.90;1.00;;;;;;5046841;28;20041;-83
2023/06/20 09:00:27;;;;;;;9.30;8.40;;;31.70;1.00;;;;;;5049534;28;20033;-85
2023/06/20 09:02:54;;;;;;;7.80;6.60;;;31.40;1.00;;;;;;5046938;28;20396;-82
2023/06/20 09:05:20;;;;;;;8.88;7.97;;;31.80;1.00;;;;;;5047341;28;20053;-82
2023/06/20 09:07:47;;;;;;;9.80;7.80;;;32.20;1.00;;;;;;5043736;28;20033;-82
2023/06/20 09:10:18;;;;;;;17.30;7.68;;;32.10;1.00;;;;;;5032107;28;20052;-84
2023/06/20 09:12:56;;;;;;;8.52;7.65;;;32.20;1.00;;;;;;5048813;28;20056;-85
2023/06/20 09:15:25;;;;;;;10.43;8.27;;;32.00;1.00;;;;;;5045976;28;20044;-84
2023/06/20 09:17:57;;;;;;;9.80;8.80;;;31.40;1.00;;;;;;5047767;28;20036;-84
2023/06/20 09:20:28;;;;;;;8.57;7.50;;;32.00;1.00;;;;;;5048609;28;20403;-83
2023/06/20 09:22:54;;;;;;;9.52;8.38;;;33.00;99.90;;;;;;5044625;28;20029;-85
2023/06/20 09:25:22;;;;;;;8.77;7.97;;;33.10;99.90;;;;;;5062012;28;20049;-87
2023/06/20 09:27:49;;;;;;;8.30;7.53;;;33.00;99.90;;;;;;5049688;28;20025;-83
2023/06/20 09:30:15;;;;;;;8.80;7.90;;;33.00;99.90;;;;;;5049626;28;20407;-84
2023/06/20 09:32:43;;;;;;;7.93;7.20;;;33.20;99.90;;;;;;5043738;28;20033;-86
2023/06/20 09:35:12;;;;;;;8.75;6.75;;;33.00;99.90;;;;;;5026116;28;20476;-86
2023/06/20 09:37:47;;;;;;;8.18;7.35;;;32.70;99.90;;;;;;5045685;28;20036;-82
2023/06/20 09:40:15;;;;;;;7.93;7.22;;;32.40;99.90;;;;;;5049358;28;20036;-82
2023/06/20 09:42:43;;;;;;;8.60;7.87;;;32.90;99.90;;;;;;5047715;28;20037;-82
2023/06/20 09:45:11;;;;;;;10.95;9.68;;;33.10;99.90;;;;;;5047646;28;20483;-86
2023/06/20 09:47:39;;;;;;;9.43;8.52;;;32.40;99.90;;;;;;5045311;28;20036;-84
2023/06/20 09:50:07;;;;;;;8.77;7.72;;;32.80;99.90;;;;;;5046896;28;20037;-84
2023/06/20 09:52:38;;;;;;;7.65;6.65;;;32.10;1.00;;;;;;5045059;28;20057;-84
2023/06/20 09:55:10;;;;;;;9.30;8.02;;;33.00;99.90;;;;;;5032351;28;20045;-81
2023/06/20 09:57:43;;;;;;;9.82;8.23;;;33.20;99.90;;;;;;5043108;28;20456;-83
2023/06/20 10:00:14;;;;;;;8.05;7.28;;;33.40;99.90;;;;;;5045828;28;20403;-83
2023/06/20 10:02:45;;;;;;;7.50;6.57;;;33.20;99.90;;;;;;5045789;28;20147;-83
2023/06/20 10:05:17;;;;;;;6.65;5.95;;;33.40;99.90;;;;;;5048088;28;20036;-82
2023/06/20 10:07:45;;;;;;;8.40;7.70;;;34.20;99.90;;;;;;5044409;28;20037;-83
2023/06/20 10:10:12;;;;;;;16.48;8.10;;;33.80;99.90;;;;;;5048711;28;20376;-80
2023/06/20 10:12:40;;;;;;;8.30;5.90;;;33.60;99.90;;;;;;5044856;28;20261;-83
2023/06/20 10:15:09;;;;;;;7.50;6.70;;;33.00;99.90;;;;;;5064555;28;20033;-85
2023/06/20 10:17:40;;;;;;;11.17;7.67;;;32.40;99.90;;;;;;5046218;28;20475;-85
2023/06/20 10:20:08;;;;;;;10.55;9.27;;;31.10;99.90;;;;;;5051107;28;20286;-82
2023/06/20 10:22:42;;;;;;;7.90;7.20;;;30.60;1.00;;;;;;5051922;28;20044;-83
2023/06/20 10:25:14;;;;;;;7.20;5.65;;;30.30;1.00;;;;;;5051482;28;20037;-82
2023/06/20 10:27:53;;;;;;;9.13;6.00;;;30.90;99.90;;;;;;5050912;28;20032;-81
2023/06/20 10:30:55;;;;;;;9.43;6.88;;;31.40;99.90;;;;;;5064200;28;20061;-86
2023/06/20 10:33:29;;;;;;;8.02;6.97;;;31.50;99.90;;;;;;5046615;28;20055;-82
2023/06/20 10:36:03;;;;;;;7.70;6.80;;;31.40;99.90;;;;;;5048184;28;20032;-82
2023/06/20 10:38:37;;;;;;;18.70;7.72;;;30.90;99.90;;;;;;5049759;28;20036;-83
2023/06/20 10:41:10;;;;;;;6.53;5.43;;;31.00;99.90;;;;;;5047319;28;20029;-81
2023/06/20 10:44:10;;;;;;;9.93;6.53;;;31.30;99.90;;;;;;5050854;28;20044;-83
2023/06/20 10:46:36;;;;;;;5.93;5.10;;;31.20;99.90;;;;;;4995117;28;20052;-83
2023/06/20 10:49:03;;;;;;;7.07;5.05;;;31.30;99.90;;;;;;5048970;28;20049;-83
2023/06/20 10:51:30;;;;;;;4.75;4.25;;;31.60;99.90;;;;;;5051208;28;20044;-84
2023/06/20 10:54:12;;;;;;;6.07;5.40;;;31.20;99.90;;;;;;5049181;28;20040;-84
2023/06/20 10:56:39;;;;;;;5.50;4.82;;;30.80;99.90;;;;;;5046697;28;20053;-81
2023/06/20 10:59:12;;;;;;;7.20;4.72;;;31.10;99.90;;;;;;5051976;28;20372;-81
2023/06/20 11:01:38;;;;;;;7.32;4.68;;;31.30;99.90;;;;;;5049245;28;20025;-84
2023/06/20 11:04:09;;;;;;;7.57;4.82;;;31.60;99.90;;;;;;5051151;28;20371;-83
2023/06/20 11:06:36;;;;;;;3.63;3.15;;;31.40;99.90;;;;;;5062991;28;20041;-82
2023/06/20 11:09:03;;;;;;;7.80;4.63;;;31.10;99.90;;;;;;5050534;28;20044;-82
2023/06/20 11:11:39;;;;;;;8.40;5.35;;;31.30;99.90;;;;;;5048784;28;20029;-83
2023/06/20 11:14:09;;;;;;;7.32;5.70;;;31.40;99.90;;;;;;5050279;28;20399;-81
2023/06/20 11:16:36;;;;;;;7.80;6.15;;;31.60;99.90;;;;;;5045115;28;20510;-83
2023/06/20 11:19:02;;;;;;;6.65;5.40;;;31.40;99.90;;;;;;5050245;28;20653;-82
2023/06/20 11:21:28;;;;;;;7.80;5.22;;;31.00;99.90;;;;;;5045546;28;20084;-82
2023/06/20 11:24:01;;;;;;;5.80;5.18;;;31.00;99.90;;;;;;5049521;28;20040;-83
2023/06/20 11:26:31;;;;;;;70.97;9.70;;;31.40;99.90;;;;;;5046839;28;20037;-82
2023/06/20 11:28:58;;;;;;;7.40;5.97;;;31.40;99.90;;;;;;5030959;28;20037;-84
2023/06/20 11:31:25;;;;;;;7.30;5.68;;;31.40;99.90;;;;;;5048965;28;20033;-80
2023/06/20 11:34:08;;;;;;;5.20;4.68;;;31.60;99.90;;;;;;5045916;28;20040;-83
2023/06/20 11:36:36;;;;;;;5.50;4.97;;;31.70;99.90;;;;;;5048520;28;20456;-83
2023/06/20 11:39:07;;;;;;;6.82;5.15;;;31.60;99.90;;;;;;5048116;28;20036;-81
2023/06/20 11:41:34;;;;;;;7.07;5.13;;;31.80;99.90;;;;;;5033236;28;20053;-83
2023/06/20 11:44:01;;;;;;;5.85;5.13;;;31.80;99.90;;;;;;5059221;28;20045;-81
2023/06/20 11:46:28;;;;;;;4.25;3.78;;;31.70;99.90;;;;;;5049424;28;20025;-82
2023/06/20 11:48:58;;;;;;;6.43;4.22;;;31.80;99.90;;;;;;5051678;28;20059;-81
2023/06/20 11:51:25;;;;;;;4.45;4.05;;;31.60;99.90;;;;;;5049238;28;20029;-81
2023/06/20 11:54:01;;;;;;;6.70;4.38;;;31.80;99.90;;;;;;5048228;28;20042;-82
2023/06/20 11:56:28;;;;;;;7.65;5.13;;;31.70;99.90;;;;;;5048867;28;20024;-81
2023/06/20 11:58:55;;;;;;;5.43;4.82;;;31.50;99.90;;;;;;5048311;28;20049;-82
2023/06/20 12:01:24;;;;;;;4.75;3.70;;;31.80;99.90;;;;;;5049978;28;20034;-82
2023/06/20 12:04:12;;;;;;;4.22;3.60;;;31.80;99.90;;;;;;5050946;28;20056;-82
2023/06/20 12:06:44;;;;;;;21.13;4.60;;;31.80;99.90;;;;;;5048928;28;20040;-83
2023/06/20 12:09:13;;;;;;;3.80;3.10;;;31.70;99.90;;;;;;5050537;28;20060;-84
2023/06/20 12:11:55;;;;;;;3.97;3.22;;;31.90;99.90;;;;;;5048073;28;20028;-82
2023/06/20 12:14:23;;;;;;;6.05;3.25;;;32.00;99.90;;;;;;5049773;28;20088;-82
2023/06/20 12:16:50;;;;;;;4.72;3.72;;;32.20;99.90;;;;;;5032006;28;20033;-80
2023/06/20 12:19:17;;;;;;;7.53;3.80;;;32.30;99.90;;;;;;5050233;28;20032;-82
2023/06/20 12:21:43;;;;;;;4.75;3.53;;;32.30;99.90;;;;;;5048528;28;20037;-84
2023/06/20 12:24:10;;;;;;;4.22;3.30;;;31.90;99.90;;;;;;5049408;28;20037;-82
2023/06/20 12:26:37;;;;;;;4.95;4.03;;;31.90;99.90;;;;;;5044856;28;20033;-84
2023/06/20 12:29:04;;;;;;;4.13;3.30;;;32.30;99.90;;;;;;5048226;28;20471;-82
2023/06/20 12:31:31;;;;;;;4.88;3.45;;;32.30;99.90;;;;;;5045578;28;20033;-83
2023/06/20 12:33:57;;;;;;;4.55;3.72;;;32.40;99.90;;;;;;5045168;28;20036;-83
2023/06/20 12:36:24;;;;;;;7.05;3.80;;;32.30;99.90;;;;;;5047760;28;20033;-83
2023/06/20 12:38:50;;;;;;;3.03;2.67;;;32.00;99.90;;;;;;5048841;28;20034;-83
2023/06/20 12:41:17;;;;;;;4.38;2.83;;;32.10;99.90;;;;;;5048920;28;20029;-80
2023/06/20 12:43:43;;;;;;;2.90;2.60;;;32.30;99.90;;;;;;5048983;28;20044;-83
2023/06/20 12:46:10;;;;;;;6.00;4.15;;;32.30;99.90;;;;;;5047486;28;20027;-80
2023/06/20 12:48:36;;;;;;;5.00;3.47;;;32.00;99.90;;;;;;5046765;28;20029;-81